sensor_id;sensor_type;location;lat;lon;timestamp;P1;durP1;ratioP1;P2;durP2;ratioP2
21099;SDS011;10708;50.824;4.408;2023-04-06T00:01:11;301.70;;;285.75;;
21099;SDS011;10708;50.824;4.408;2023-04-06T00:06:14;290.55;;;275.13;;
21099;SDS011;10708;50.824;4.408;2023-04-06T00:11:17;262.90;;;248.40;;
21099;SDS011;10708;50.824;4.408;2023-04-06T00:16:19;264.15;;;249.75;;
21099;SDS011;10708;50.824;4.408;2023-04-06T00:21:23;256.93;;;243.07;;
21099;SDS011;10708;50.824;4.408;2023-04-06T00:26:26;280.25;;;265.23;;
21099;SDS011;10708;50.824;4.408;2023-04-06T00:31:28;277.90;;;263.15;;
21099;SDS011;10708;50.824;4.408;2023-04-06T00:36:32;285.93;;;270.73;;
21099;SDS011;10708;50.824;4.408;2023-04-06T00:41:35;268.95;;;254.70;;
21099;SDS011;10708;50.824;4.408;2023-04-06T00:46:37;276.93;;;262.30;;
21099;SDS011;10708;50.824;4.408;2023-04-06T00:51:41;289.15;;;273.92;;
21099;SDS011;10708;50.824;4.408;2023-04-06T00:56:43;283.30;;;268.37;;
21099;SDS011;10708;50.824;4.408;2023-04-06T01:01:46;299.23;;;283.13;;
21099;SDS011;10708;50.824;4.408;2023-04-06T01:06:50;316.13;;;299.47;;
21099;SDS011;10708;50.824;4.408;2023-04-06T01:11:55;345.30;;;327.00;;
21099;SDS011;10708;50.824;4.408;2023-04-06T01:16:58;314.70;;;298.15;;
21099;SDS011;10708;50.824;4.408;2023-04-06T01:22:04;328.77;;;311.23;;
21099;SDS011;10708;50.824;4.408;2023-04-06T01:27:07;329.27;;;311.92;;
21099;SDS011;10708;50.824;4.408;2023-04-06T01:32:10;321.30;;;304.20;;
21099;SDS011;10708;50.824;4.408;2023-04-06T01:37:12;338.55;;;320.75;;
21099;SDS011;10708;50.824;4.408;2023-04-06T01:42:16;344.67;;;326.20;;
21099;SDS011;10708;50.824;4.408;2023-04-06T01:47:18;357.83;;;338.43;;
21099;SDS011;10708;50.824;4.408;2023-04-06T01:52:21;373.13;;;353.23;;
21099;SDS011;10708;50.824;4.408;2023-04-06T01:57:25;386.50;;;365.63;;
21099;SDS011;10708;50.824;4.408;2023-04-06T02:02:27;431.63;;;407.83;;
21099;SDS011;10708;50.824;4.408;2023-04-06T02:07:30;460.37;;;434.47;;
21099;SDS011;10708;50.824;4.408;2023-04-06T02:12:33;471.70;;;445.02;;
21099;SDS011;10708;50.824;4.408;2023-04-06T02:17:36;459.30;;;433.65;;
21099;SDS011;10708;50.824;4.408;2023-04-06T02:22:38;423.08;;;399.42;;
21099;SDS011;10708;50.824;4.408;2023-04-06T02:27:42;437.30;;;412.92;;
21099;SDS011;10708;50.824;4.408;2023-04-06T02:32:44;463.43;;;437.00;;
21099;SDS011;10708;50.824;4.408;2023-04-06T02:37:47;450.35;;;425.15;;
21099;SDS011;10708;50.824;4.408;2023-04-06T02:42:52;485.67;;;458.02;;
21099;SDS011;10708;50.824;4.408;2023-04-06T02:47:55;490.05;;;461.95;;
21099;SDS011;10708;50.824;4.408;2023-04-06T02:52:57;467.50;;;441.05;;
21099;SDS011;10708;50.824;4.408;2023-04-06T02:58:01;474.03;;;446.57;;
21099;SDS011;10708;50.824;4.408;2023-04-06T03:03:03;450.65;;;425.13;;
21099;SDS011;10708;50.824;4.408;2023-04-06T03:08:05;456.90;;;431.17;;
21099;SDS011;10708;50.824;4.408;2023-04-06T03:13:09;442.95;;;417.58;;
21099;SDS011;10708;50.824;4.408;2023-04-06T03:18:11;436.10;;;411.53;;
21099;SDS011;10708;50.824;4.408;2023-04-06T03:23:14;448.40;;;423.20;;
21099;SDS011;10708;50.824;4.408;2023-04-06T03:28:18;443.37;;;418.37;;
21099;SDS011;10708;50.824;4.408;2023-04-06T03:33:20;447.98;;;422.77;;
21099;SDS011;10708;50.824;4.408;2023-04-06T03:38:23;440.92;;;416.20;;
21099;SDS011;10708;50.824;4.408;2023-04-06T03:43:26;501.70;;;472.85;;
21099;SDS011;10708;50.824;4.408;2023-04-06T03:48:29;501.10;;;472.23;;
21099;SDS011;10708;50.824;4.408;2023-04-06T03:53:31;470.17;;;443.03;;
21099;SDS011;10708;50.824;4.408;2023-04-06T03:58:35;465.00;;;438.57;;
21099;SDS011;10708;50.824;4.408;2023-04-06T04:03:37;454.73;;;428.70;;
21099;SDS011;10708;50.824;4.408;2023-04-06T04:08:40;439.25;;;414.45;;
21099;SDS011;10708;50.824;4.408;2023-04-06T04:13:44;511.77;;;482.02;;
21099;SDS011;10708;50.824;4.408;2023-04-06T04:18:46;527.95;;;497.30;;
21099;SDS011;10708;50.824;4.408;2023-04-06T04:23:49;398.67;;;376.85;;
21099;SDS011;10708;50.824;4.408;2023-04-06T04:28:53;374.88;;;354.25;;
21099;SDS011;10708;50.824;4.408;2023-04-06T04:33:55;411.70;;;389.20;;
21099;SDS011;10708;50.824;4.408;2023-04-06T04:38:57;452.43;;;427.50;;
21099;SDS011;10708;50.824;4.408;2023-04-06T04:44:03;483.58;;;456.55;;
21099;SDS011;10708;50.824;4.408;2023-04-06T04:49:05;506.00;;;477.52;;
21099;SDS011;10708;50.824;4.408;2023-04-06T04:54:08;514.00;;;484.37;;
21099;SDS011;10708;50.824;4.408;2023-04-06T04:59:11;525.33;;;494.73;;
21099;SDS011;10708;50.824;4.408;2023-04-06T05:04:14;543.80;;;512.22;;
21099;SDS011;10708;50.824;4.408;2023-04-06T05:09:19;577.72;;;543.13;;
21099;SDS011;10708;50.824;4.408;2023-04-06T05:14:23;570.37;;;536.07;;
21099;SDS011;10708;50.824;4.408;2023-04-06T05:19:26;579.37;;;544.67;;
21099;SDS011;10708;50.824;4.408;2023-04-06T05:24:29;569.70;;;535.42;;
21099;SDS011;10708;50.824;4.408;2023-04-06T05:29:32;590.05;;;554.53;;
21099;SDS011;10708;50.824;4.408;2023-04-06T05:34:35;589.72;;;553.88;;
21099;SDS011;10708;50.824;4.408;2023-04-06T05:39:39;575.17;;;540.63;;
21099;SDS011;10708;50.824;4.408;2023-04-06T05:44:49;590.83;;;554.23;;
21099;SDS011;10708;50.824;4.408;2023-04-06T05:49:57;567.47;;;532.83;;
21099;SDS011;10708;50.824;4.408;2023-04-06T05:54:59;518.33;;;487.25;;
21099;SDS011;10708;50.824;4.408;2023-04-06T06:00:03;523.88;;;491.92;;
21099;SDS011;10708;50.824;4.408;2023-04-06T06:05:08;502.83;;;472.42;;
21099;SDS011;10708;50.824;4.408;2023-04-06T06:10:11;486.80;;;457.50;;
21099;SDS011;10708;50.824;4.408;2023-04-06T06:15:15;527.55;;;495.85;;
21099;SDS011;10708;50.824;4.408;2023-04-06T06:20:17;508.23;;;477.05;;
21099;SDS011;10708;50.824;4.408;2023-04-06T06:25:20;358.73;;;337.20;;
21099;SDS011;10708;50.824;4.408;2023-04-06T06:30:24;158.55;;;148.82;;
21099;SDS011;10708;50.824;4.408;2023-04-06T06:35:27;198.95;;;187.23;;
21099;SDS011;10708;50.824;4.408;2023-04-06T06:40:29;280.50;;;264.48;;
21099;SDS011;10708;50.824;4.408;2023-04-06T06:45:33;506.63;;;472.97;;
21099;SDS011;10708;50.824;4.408;2023-04-06T06:50:36;506.02;;;472.60;;
21099;SDS011;10708;50.824;4.408;2023-04-06T06:55:38;1061.05;;;969.55;;
21099;SDS011;10708;50.824;4.408;2023-04-06T07:00:42;623.78;;;579.03;;
21099;SDS011;10708;50.824;4.408;2023-04-06T07:05:47;523.38;;;487.13;;
21099;SDS011;10708;50.824;4.408;2023-04-06T07:10:53;730.47;;;671.58;;
21099;SDS011;10708;50.824;4.408;2023-04-06T07:15:59;1219.53;;;999.90;;
21099;SDS011;10708;50.824;4.408;2023-04-06T07:21:03;910.17;;;824.40;;
21099;SDS011;10708;50.824;4.408;2023-04-06T07:26:05;733.23;;;666.67;;
21099;SDS011;10708;50.824;4.408;2023-04-06T07:31:09;1146.72;;;999.90;;
21099;SDS011;10708;50.824;4.408;2023-04-06T07:36:12;867.80;;;787.07;;
21099;SDS011;10708;50.824;4.408;2023-04-06T07:41:15;1099.28;;;993.55;;
21099;SDS011;10708;50.824;4.408;2023-04-06T07:46:19;1113.47;;;988.83;;
21099;SDS011;10708;50.824;4.408;2023-04-06T07:51:21;729.83;;;665.63;;
21099;SDS011;10708;50.824;4.408;2023-04-06T07:56:24;1262.38;;;999.90;;
21099;SDS011;10708;50.824;4.408;2023-04-06T08:01:28;1999.90;;;999.90;;
21099;SDS011;10708;50.824;4.408;2023-04-06T08:06:31;1178.47;;;999.90;;
21099;SDS011;10708;50.824;4.408;2023-04-06T08:11:34;1478.03;;;918.67;;
21099;SDS011;10708;50.824;4.408;2023-04-06T08:16:38;1999.90;;;999.90;;
21099;SDS011;10708;50.824;4.408;2023-04-06T08:21:41;1999.90;;;999.90;;
21099;SDS011;10708;50.824;4.408;2023-04-06T08:26:43;1999.90;;;999.90;;
21099;SDS011;10708;50.824;4.408;2023-04-06T08:31:47;1813.18;;;999.90;;
21099;SDS011;10708;50.824;4.408;2023-04-06T08:36:50;1321.60;;;999.90;;
21099;SDS011;10708;50.824;4.408;2023-04-06T08:41:53;1304.57;;;927.87;;
21099;SDS011;10708;50.824;4.408;2023-04-06T08:46:59;1806.03;;;999.90;;
21099;SDS011;10708;50.824;4.408;2023-04-06T08:52:02;1670.50;;;998.00;;
21099;SDS011;10708;50.824;4.408;2023-04-06T08:57:06;1999.90;;;999.90;;
21099;SDS011;10708;50.824;4.408;2023-04-06T09:02:11;1999.90;;;999.90;;
21099;SDS011;10708;50.824;4.408;2023-04-06T09:07:17;1999.90;;;999.90;;
21099;SDS011;10708;50.824;4.408;2023-04-06T09:12:24;1999.90;;;999.90;;
21099;SDS011;10708;50.824;4.408;2023-04-06T09:17:28;1999.90;;;999.90;;
21099;SDS011;10708;50.824;4.408;2023-04-06T09:22:36;1999.90;;;999.90;;
21099;SDS011;10708;50.824;4.408;2023-04-06T09:27:39;1999.90;;;999.90;;
21099;SDS011;10708;50.824;4.408;2023-04-06T09:32:45;1999.90;;;999.90;;
21099;SDS011;10708;50.824;4.408;2023-04-06T09:37:50;1999.90;;;999.90;;
21099;SDS011;10708;50.824;4.408;2023-04-06T09:42:53;1999.90;;;999.90;;
21099;SDS011;10708;50.824;4.408;2023-04-06T09:48:02;1999.90;;;999.90;;
21099;SDS011;10708;50.824;4.408;2023-04-06T09:53:06;1999.90;;;999.90;;
21099;SDS011;10708;50.824;4.408;2023-04-06T09:58:09;1999.90;;;999.90;;
21099;SDS011;10708;50.824;4.408;2023-04-06T10:03:18;1999.90;;;999.90;;
21099;SDS011;10708;50.824;4.408;2023-04-06T10:08:29;1999.90;;;999.90;;
21099;SDS011;10708;50.824;4.408;2023-04-06T10:13:34;1999.90;;;999.90;;
21099;SDS011;10708;50.824;4.408;2023-04-06T10:18:38;1999.90;;;999.90;;
21099;SDS011;10708;50.824;4.408;2023-04-06T10:23:45;1999.90;;;941.03;;
21099;SDS011;10708;50.824;4.408;2023-04-06T10:28:50;1999.90;;;952.87;;
21099;SDS011;10708;50.824;4.408;2023-04-06T10:33:57;1999.90;;;909.93;;
21099;SDS011;10708;50.824;4.408;2023-04-06T10:39:01;1999.90;;;900.72;;
21099;SDS011;10708;50.824;4.408;2023-04-06T10:44:05;1999.90;;;889.25;;
21099;SDS011;10708;50.824;4.408;2023-04-06T10:49:12;1999.90;;;914.88;;
21099;SDS011;10708;50.824;4.408;2023-04-06T10:54:14;1999.90;;;908.58;;
21099;SDS011;10708;50.824;4.408;2023-04-06T10:59:18;1999.90;;;926.27;;
21099;SDS011;10708;50.824;4.408;2023-04-06T11:04:24;1999.90;;;911.72;;
21099;SDS011;10708;50.824;4.408;2023-04-06T11:09:27;1999.90;;;992.28;;
21099;SDS011;10708;50.824;4.408;2023-04-06T11:14:32;1999.90;;;865.55;;
21099;SDS011;10708;50.824;4.408;2023-04-06T11:19:36;1999.90;;;902.23;;
21099;SDS011;10708;50.824;4.408;2023-04-06T11:24:38;1999.90;;;796.65;;
21099;SDS011;10708;50.824;4.408;2023-04-06T11:29:41;1999.90;;;843.00;;
21099;SDS011;10708;50.824;4.408;2023-04-06T11:34:46;1999.90;;;833.53;;
21099;SDS011;10708;50.824;4.408;2023-04-06T11:39:50;1999.90;;;679.97;;
21099;SDS011;10708;50.824;4.408;2023-04-06T11:44:53;1999.90;;;621.33;;
21099;SDS011;10708;50.824;4.408;2023-04-06T11:50:04;1999.90;;;793.88;;
21099;SDS011;10708;50.824;4.408;2023-04-06T11:55:12;1999.90;;;722.65;;
21099;SDS011;10708;50.824;4.408;2023-04-06T12:00:16;1999.90;;;818.53;;
21099;SDS011;10708;50.824;4.408;2023-04-06T12:05:21;1999.90;;;680.03;;
21099;SDS011;10708;50.824;4.408;2023-04-06T12:10:24;1999.90;;;678.65;;
21099;SDS011;10708;50.824;4.408;2023-04-06T12:15:26;1999.90;;;522.20;;
21099;SDS011;10708;50.824;4.408;2023-04-06T12:20:30;1999.90;;;667.90;;
21099;SDS011;10708;50.824;4.408;2023-04-06T12:25:33;1999.90;;;372.15;;
21099;SDS011;10708;50.824;4.408;2023-04-06T12:30:36;1999.90;;;494.67;;
21099;SDS011;10708;50.824;4.408;2023-04-06T12:35:40;1999.90;;;645.27;;
21099;SDS011;10708;50.824;4.408;2023-04-06T12:40:42;1999.90;;;644.80;;
21099;SDS011;10708;50.824;4.408;2023-04-06T12:45:44;1999.90;;;697.67;;
21099;SDS011;10708;50.824;4.408;2023-04-06T12:50:55;1999.90;;;747.20;;
21099;SDS011;10708;50.824;4.408;2023-04-06T12:55:58;1999.90;;;965.27;;
21099;SDS011;10708;50.824;4.408;2023-04-06T13:01:05;1999.90;;;947.60;;
21099;SDS011;10708;50.824;4.408;2023-04-06T13:06:10;1999.90;;;953.80;;
21099;SDS011;10708;50.824;4.408;2023-04-06T13:11:13;1999.90;;;893.92;;
21099;SDS011;10708;50.824;4.408;2023-04-06T13:16:16;1999.90;;;981.57;;
21099;SDS011;10708;50.824;4.408;2023-04-06T13:21:20;1999.90;;;927.67;;
21099;SDS011;10708;50.824;4.408;2023-04-06T13:26:23;1999.90;;;810.83;;
21099;SDS011;10708;50.824;4.408;2023-04-06T13:31:25;1999.90;;;761.47;;
21099;SDS011;10708;50.824;4.408;2023-04-06T13:36:29;1999.90;;;776.08;;
21099;SDS011;10708;50.824;4.408;2023-04-06T13:41:32;1999.90;;;711.38;;
21099;SDS011;10708;50.824;4.408;2023-04-06T13:46:34;1999.90;;;725.80;;
21099;SDS011;10708;50.824;4.408;2023-04-06T13:51:39;1999.90;;;650.55;;
21099;SDS011;10708;50.824;4.408;2023-04-06T13:56:42;1999.90;;;723.58;;
21099;SDS011;10708;50.824;4.408;2023-04-06T14:01:44;1999.90;;;618.27;;
21099;SDS011;10708;50.824;4.408;2023-04-06T14:06:48;1999.90;;;837.17;;
21099;SDS011;10708;50.824;4.408;2023-04-06T14:11:51;1999.90;;;933.75;;
21099;SDS011;10708;50.824;4.408;2023-04-06T14:16:53;1999.90;;;969.65;;
21099;SDS011;10708;50.824;4.408;2023-04-06T14:21:57;1999.90;;;999.90;;
21099;SDS011;10708;50.824;4.408;2023-04-06T14:27:00;1999.90;;;915.80;;
21099;SDS011;10708;50.824;4.408;2023-04-06T14:32:03;1999.90;;;900.00;;
21099;SDS011;10708;50.824;4.408;2023-04-06T14:37:07;1999.90;;;999.90;;
21099;SDS011;10708;50.824;4.408;2023-04-06T14:42:10;1999.90;;;638.47;;
21099;SDS011;10708;50.824;4.408;2023-04-06T14:47:13;1999.90;;;791.60;;
21099;SDS011;10708;50.824;4.408;2023-04-06T14:52:17;1999.90;;;999.90;;
21099;SDS011;10708;50.824;4.408;2023-04-06T14:57:20;1781.72;;;766.70;;
21099;SDS011;10708;50.824;4.408;2023-04-06T15:02:22;1999.90;;;999.90;;
21099;SDS011;10708;50.824;4.408;2023-04-06T15:07:26;1661.15;;;760.50;;
21099;SDS011;10708;50.824;4.408;2023-04-06T15:12:29;1280.80;;;373.50;;
21099;SDS011;10708;50.824;4.408;2023-04-06T15:17:32;1999.90;;;999.90;;
21099;SDS011;10708;50.824;4.408;2023-04-06T15:22:36;1999.90;;;999.90;;
21099;SDS011;10708;50.824;4.408;2023-04-06T15:27:38;1999.90;;;999.90;;
21099;SDS011;10708;50.824;4.408;2023-04-06T15:32:51;1999.90;;;999.90;;
21099;SDS011;10708;50.824;4.408;2023-04-06T15:37:56;1999.90;;;999.90;;
21099;SDS011;10708;50.824;4.408;2023-04-06T15:42:59;1999.90;;;999.90;;
21099;SDS011;10708;50.824;4.408;2023-04-06T15:48:02;1999.90;;;999.90;;
21099;SDS011;10708;50.824;4.408;2023-04-06T15:53:06;1999.90;;;999.90;;
21099;SDS011;10708;50.824;4.408;2023-04-06T15:58:08;1999.90;;;999.90;;
21099;SDS011;10708;50.824;4.408;2023-04-06T16:03:11;1999.90;;;999.90;;
21099;SDS011;10708;50.824;4.408;2023-04-06T16:08:21;1999.90;;;460.03;;
21099;SDS011;10708;50.824;4.408;2023-04-06T16:13:24;1999.90;;;999.90;;
21099;SDS011;10708;50.824;4.408;2023-04-06T16:18:26;1999.90;;;939.35;;
21099;SDS011;10708;50.824;4.408;2023-04-06T16:23:30;1999.90;;;999.90;;
21099;SDS011;10708;50.824;4.408;2023-04-06T16:28:33;1999.90;;;999.90;;
21099;SDS011;10708;50.824;4.408;2023-04-06T16:33:36;1999.90;;;999.90;;
21099;SDS011;10708;50.824;4.408;2023-04-06T16:38:39;1999.90;;;999.90;;
21099;SDS011;10708;50.824;4.408;2023-04-06T16:43:42;1999.90;;;969.83;;
21099;SDS011;10708;50.824;4.408;2023-04-06T16:48:46;1999.90;;;933.60;;
21099;SDS011;10708;50.824;4.408;2023-04-06T16:53:49;1999.90;;;771.45;;
21099;SDS011;10708;50.824;4.408;2023-04-06T16:58:52;1999.90;;;737.45;;
21099;SDS011;10708;50.824;4.408;2023-04-06T17:03:55;1999.90;;;640.10;;
21099;SDS011;10708;50.824;4.408;2023-04-06T17:08:59;1999.90;;;999.90;;
21099;SDS011;10708;50.824;4.408;2023-04-06T17:14:02;1999.90;;;425.87;;
21099;SDS011;10708;50.824;4.408;2023-04-06T17:19:05;1999.90;;;999.90;;
21099;SDS011;10708;50.824;4.408;2023-04-06T17:24:11;1999.90;;;999.90;;
21099;SDS011;10708;50.824;4.408;2023-04-06T17:29:14;1999.90;;;999.90;;
21099;SDS011;10708;50.824;4.408;2023-04-06T17:34:16;1999.90;;;999.90;;
21099;SDS011;10708;50.824;4.408;2023-04-06T17:39:20;1999.90;;;962.77;;
21099;SDS011;10708;50.824;4.408;2023-04-06T17:44:23;1999.90;;;999.90;;
21099;SDS011;10708;50.824;4.408;2023-04-06T17:49:25;1999.90;;;999.90;;
21099;SDS011;10708;50.824;4.408;2023-04-06T17:59:34;1999.90;;;999.90;;
21099;SDS011;10708;50.824;4.408;2023-04-06T18:04:36;1999.90;;;999.90;;
21099;SDS011;10708;50.824;4.408;2023-04-06T18:09:43;1999.90;;;569.88;;
21099;SDS011;10708;50.824;4.408;2023-04-06T18:14:46;1999.90;;;576.92;;
21099;SDS011;10708;50.824;4.408;2023-04-06T18:19:49;1999.90;;;999.90;;
21099;SDS011;10708;50.824;4.408;2023-04-06T18:24:53;1999.90;;;999.90;;
21099;SDS011;10708;50.824;4.408;2023-04-06T18:29:56;1999.90;;;653.15;;
21099;SDS011;10708;50.824;4.408;2023-04-06T18:35:00;1999.90;;;714.78;;
21099;SDS011;10708;50.824;4.408;2023-04-06T18:40:05;1999.90;;;999.90;;
21099;SDS011;10708;50.824;4.408;2023-04-06T18:45:09;1999.90;;;627.05;;
21099;SDS011;10708;50.824;4.408;2023-04-06T18:50:12;1999.90;;;886.15;;
21099;SDS011;10708;50.824;4.408;2023-04-06T18:55:16;1999.90;;;999.90;;
21099;SDS011;10708;50.824;4.408;2023-04-06T19:00:20;1999.90;;;575.73;;
21099;SDS011;10708;50.824;4.408;2023-04-06T19:05:22;1999.90;;;883.78;;
21099;SDS011;10708;50.824;4.408;2023-04-06T19:10:26;1999.90;;;388.95;;
21099;SDS011;10708;50.824;4.408;2023-04-06T19:15:29;1999.90;;;283.92;;
21099;SDS011;10708;50.824;4.408;2023-04-06T19:20:32;1999.90;;;999.90;;
21099;SDS011;10708;50.824;4.408;2023-04-06T19:25:36;1999.90;;;999.90;;
21099;SDS011;10708;50.824;4.408;2023-04-06T19:30:38;1999.90;;;743.77;;
21099;SDS011;10708;50.824;4.408;2023-04-06T19:35:42;1999.90;;;570.83;;
21099;SDS011;10708;50.824;4.408;2023-04-06T19:40:46;1999.90;;;999.90;;
21099;SDS011;10708;50.824;4.408;2023-04-06T19:45:48;1999.90;;;999.90;;
21099;SDS011;10708;50.824;4.408;2023-04-06T19:50:51;1999.90;;;999.90;;
21099;SDS011;10708;50.824;4.408;2023-04-06T19:55:55;1999.90;;;999.90;;
21099;SDS011;10708;50.824;4.408;2023-04-06T20:00:58;1999.90;;;592.22;;
21099;SDS011;10708;50.824;4.408;2023-04-06T20:06:00;1999.90;;;999.90;;
21099;SDS011;10708;50.824;4.408;2023-04-06T20:11:04;1999.90;;;999.90;;
21099;SDS011;10708;50.824;4.408;2023-04-06T20:16:08;1999.90;;;727.15;;
21099;SDS011;10708;50.824;4.408;2023-04-06T20:21:13;1999.90;;;999.90;;
21099;SDS011;10708;50.824;4.408;2023-04-06T20:26:17;1977.05;;;209.15;;
21099;SDS011;10708;50.824;4.408;2023-04-06T20:31:19;1999.90;;;999.90;;
21099;SDS011;10708;50.824;4.408;2023-04-06T20:36:22;1999.90;;;775.17;;
21099;SDS011;10708;50.824;4.408;2023-04-06T20:41:26;1999.90;;;801.78;;
21099;SDS011;10708;50.824;4.408;2023-04-06T20:46:29;1999.90;;;999.90;;
21099;SDS011;10708;50.824;4.408;2023-04-06T20:51:31;1999.90;;;999.90;;
21099;SDS011;10708;50.824;4.408;2023-04-06T20:56:35;1999.90;;;738.78;;
21099;SDS011;10708;50.824;4.408;2023-04-06T21:01:37;1999.90;;;972.53;;
21099;SDS011;10708;50.824;4.408;2023-04-06T21:06:40;1999.90;;;999.90;;
21099;SDS011;10708;50.824;4.408;2023-04-06T21:11:44;1999.90;;;999.90;;
21099;SDS011;10708;50.824;4.408;2023-04-06T21:16:46;1464.35;;;893.92;;
21099;SDS011;10708;50.824;4.408;2023-04-06T21:21:49;1999.90;;;999.90;;
21099;SDS011;10708;50.824;4.408;2023-04-06T21:26:52;920.67;;;825.67;;
21099;SDS011;10708;50.824;4.408;2023-04-06T21:31:55;804.00;;;733.60;;
21099;SDS011;10708;50.824;4.408;2023-04-06T21:37:17;1083.00;;;975.65;;
21099;SDS011;10708;50.824;4.408;2023-04-06T21:42:21;995.97;;;903.17;;
21099;SDS011;10708;50.824;4.408;2023-04-06T21:47:23;529.10;;;492.43;;
21099;SDS011;10708;50.824;4.408;2023-04-06T21:52:25;742.13;;;679.25;;
21099;SDS011;10708;50.824;4.408;2023-04-06T21:57:29;1311.25;;;999.90;;
21099;SDS011;10708;50.824;4.408;2023-04-06T22:02:32;1111.75;;;996.85;;
21099;SDS011;10708;50.824;4.408;2023-04-06T22:07:34;1999.90;;;999.90;;
21099;SDS011;10708;50.824;4.408;2023-04-06T22:12:38;1999.90;;;999.90;;
21099;SDS011;10708;50.824;4.408;2023-04-06T22:17:40;1999.90;;;929.28;;
21099;SDS011;10708;50.824;4.408;2023-04-06T22:22:42;1999.90;;;999.90;;
21099;SDS011;10708;50.824;4.408;2023-04-06T22:27:46;1999.90;;;999.90;;
21099;SDS011;10708;50.824;4.408;2023-04-06T22:32:49;1381.28;;;999.90;;
21099;SDS011;10708;50.824;4.408;2023-04-06T22:37:51;953.93;;;864.47;;
21099;SDS011;10708;50.824;4.408;2023-04-06T22:42:55;713.38;;;663.25;;
21099;SDS011;10708;50.824;4.408;2023-04-06T22:47:57;1999.90;;;999.90;;
21099;SDS011;10708;50.824;4.408;2023-04-06T22:52:59;1999.90;;;999.90;;
21099;SDS011;10708;50.824;4.408;2023-04-06T22:58:03;1999.90;;;999.90;;
21099;SDS011;10708;50.824;4.408;2023-04-06T23:03:06;1999.90;;;999.90;;
21099;SDS011;10708;50.824;4.408;2023-04-06T23:08:08;1999.90;;;999.90;;
21099;SDS011;10708;50.824;4.408;2023-04-06T23:13:12;1999.90;;;806.20;;
21099;SDS011;10708;50.824;4.408;2023-04-06T23:18:14;1999.90;;;999.90;;
21099;SDS011;10708;50.824;4.408;2023-04-06T23:23:17;1999.90;;;999.90;;
21099;SDS011;10708;50.824;4.408;2023-04-06T23:28:20;1999.90;;;999.90;;
21099;SDS011;10708;50.824;4.408;2023-04-06T23:33:22;1999.90;;;999.90;;
21099;SDS011;10708;50.824;4.408;2023-04-06T23:38:29;1999.90;;;999.90;;
21099;SDS011;10708;50.824;4.408;2023-04-06T23:43:32;1999.90;;;999.90;;
21099;SDS011;10708;50.824;4.408;2023-04-06T23:48:35;1999.90;;;999.90;;
21099;SDS011;10708;50.824;4.408;2023-04-06T23:53:38;1999.90;;;999.90;;
21099;SDS011;10708;50.824;4.408;2023-04-06T23:58:42;1999.90;;;999.90;;
